首页
METAR-TAF:

METAR-TAF

机场 :

太原武宿国际机场

太原, 中华人民共和国

纬度: 37-47N, 经度: 112-33E, 海拔: 779米

当前天气观测

该预报发布于20分钟前的17:00 UTC
风速4节,风向东转东北
温度 -10°C
湿度 52%
气压 1031 hPa
能見度: 5000

METAR: ZBYN 121700Z 07002MPS 5000 HZ NSC M10/M18 Q1031 NOSIG

时间: 01:20 (17:20 UTC)

预报

该预报发布于8小时和14分钟前的09:06 UTC
预报有效从12日的 12点(UTC)到 13日的 12点(UTC)
风速8节,风向
能見度: 5000

TAF: ZBYN 120906Z 1212/1312 09004MPS 5000 HZ NSC TX01/1307Z TNM16/22Z

超过4000个机场的气象观测和天气预报(METAR&TAF报告)。

可查询的气象台以黄色和红色小点在地图上表示。

将鼠标移到小点上方,可查看气象台名称。

然后点击查看天气观测和预报。

如需切换地图:点击带黑十字的绿色按钮放大地图;点击带横线的绿色按钮缩小地图;或者点击绿色箭头查看邻近地区的地图。


METAR-TAF: